Terminal Aerodrome Forecast
Issued by NWS Louisville, KY

Home | Current Version | Previous Version | Text Only | Print | Product List | Glossary On
Versions: 1 2 3 4 5 6 7 8 9 10 11 12 13 14 15
000
FTUS43 KLMK 252200 AAA
TAFLEX
TAF AMD
KLEX 252221Z 2522/2618 05012KT P6SM BKN005 OVC010
     FM260000 07010KT P6SM VCTS SCT005 BKN012CB
     FM260400 05011KT 5SM BR VCSH OVC008
     FM261200 03011KT P6SM OVC015
     FM261600 03010KT P6SM BKN035=

USA.gov is the U.S. government's official web portal to all federal, state and local government web resources and services.